Florida Voyager — WDF4764 — position and weather

sailwx.info

Track history (hours):
 
Tides and Currents Weather Stations Pressure Air Temp Water Temp Dewpoint Dewpoint Depression Visibility Wind Speed Wind Dir Waves Ship Positions

Florida Voyager

Owner: Chevron USA Inc., Washington, DC. More information available from US FCC via Universal Licensing System and Coast Guard Vessel Documentation Center.

Last reported at 2019-Feb-20 06:58 UTC. Time now 2019-Feb-20 07:21 UTC.
Position N 33°55' W 118°27'.

Length 183 m; draft 11.4 m.

Type: Tanker. MMSI: 367455580.

Date/timePositionNaut miles runAvg speedWind from/ knotsBaromVisibWave heightAir tempDewpointWater temp
2019-Feb-20 06:58N 33°55' W 118°27'0 0.0
2019-Feb-20 06:28N 33°55' W 118°27'0 0.0
2019-Feb-20 05:58N 33°55' W 118°27'0 0.0
2019-Feb-20 05:28N 33°55' W 118°27'0 0.0
2019-Feb-20 04:55N 33°55' W 118°27'0 0.0
2019-Feb-20 04:28N 33°55' W 118°27'0 0.0
2019-Feb-20 03:58N 33°55' W 118°27'0 0.0
2019-Feb-20 02:58N 33°55' W 118°27'0 0.0
2019-Feb-20 02:28N 33°55' W 118°27'0 0.0
2019-Feb-20 01:58N 33°55' W 118°27'0 0.0
2019-Feb-20 01:28N 33°55' W 118°27'0 0.0
2019-Feb-20 00:58N 33°55' W 118°27'0 0.0
2019-Feb-20 00:28N 33°55' W 118°27'0 0.0
2019-Feb-19 23:58N 33°55' W 118°27'0 0.0
2019-Feb-19 23:28N 33°55' W 118°27'0 0.0
2019-Feb-19 22:58N 33°55' W 118°27'0 0.0
2019-Feb-19 22:28N 33°55' W 118°27'0 0.0
2019-Feb-19 21:58N 33°55' W 118°27'0 0.0
2019-Feb-19 21:28N 33°55' W 118°27'0 0.0
2019-Feb-19 20:58N 33°55' W 118°27'0 0.0
2019-Feb-19 20:28N 33°55' W 118°27'0 0.0
2019-Feb-19 19:58N 33°55' W 118°27'0 0.0
2019-Feb-19 19:28N 33°55' W 118°27'0 0.1
2019-Feb-19 18:58N 33°55' W 118°27'1 1.1
2019-Feb-19 18:30N 33°54' W 118°27'2 3.1
2019-Feb-19 18:00N 33°53' W 118°28'1 2.5
2019-Feb-19 17:31N 33°52' W 118°30'0 1.0
2019-Feb-19 17:00N 33°52' W 118°30'4 8.4
2019-Feb-19 16:30N 33°48' W 118°31'510.9
2019-Feb-19 16:00N 33°42' W 118°30'611.9
2019-Feb-19 15:30N 33°39' W 118°23'611.4
2019-Feb-19 15:00N 33°38' W 118°16'510.1
2019-Feb-19 14:30N 33°41' W 118°12'3 5.8
2019-Feb-19 14:00N 33°44' W 118°10'0 0.0
2019-Feb-19 13:24N 33°44' W 118°10'0 0.0
2019-Feb-19 13:00N 33°44' W 118°10'0 0.0
2019-Feb-19 12:30N 33°44' W 118°10'0 0.1
2019-Feb-19 12:00N 33°44' W 118°10'0 0.0
2019-Feb-19 11:30N 33°44' W 118°10'0 0.0
2019-Feb-19 11:00N 33°44' W 118°10'0 0.0
2019-Feb-19 10:30N 33°44' W 118°10'0 0.0
2019-Feb-19 10:00N 33°44' W 118°10'0 0.0
2019-Feb-19 09:30N 33°44' W 118°10'0 0.1
2019-Feb-19 09:00N 33°44' W 118°10'0 0.0
2019-Feb-19 08:27N 33°44' W 118°10'0 0.1
2019-Feb-19 07:45N 33°44' W 118°10'0 0.0
2019-Feb-19 07:30N 33°44' W 118°10'0 0.0
2019-Feb-19 06:57N 33°44' W 118°10'0 0.1
2019-Feb-19 06:15N 33°44' W 118°10'0 0.0
2019-Feb-19 05:51N 33°44' W 118°10'0 0.1
2019-Feb-19 05:30N 33°44' W 118°10'0 0.1
2019-Feb-19 04:57N 33°44' W 118°10'0 0.1
2019-Feb-19 04:30N 33°44' W 118°10'0 0.0
2019-Feb-19 03:48N 33°44' W 118°10'0 0.0
2019-Feb-19 03:30N 33°44' W 118°10'0 0.0
2019-Feb-19 03:00N 33°44' W 118°10'0 0.1
2019-Feb-19 02:27N 33°44' W 118°10'0 0.1
2019-Feb-19 01:54N 33°44' W 118°10'0 0.1
2019-Feb-19 01:09N 33°44' W 118°10'0 0.5
2019-Feb-19 00:57N 33°44' W 118°10'0 0.3
2019-Feb-19 00:30N 33°44' W 118°10'0 0.0
2019-Feb-19 00:00N 33°44' W 118°10'0 0.0
2019-Feb-18 23:30N 33°44' W 118°10'0 0.0
2019-Feb-18 22:57N 33°44' W 118°10'0 0.0
2019-Feb-18 22:30N 33°44' W 118°10'0 0.1
2019-Feb-18 22:00N 33°44' W 118°10'0 0.0
2019-Feb-18 21:30N 33°44' W 118°10'0 0.0
2019-Feb-18 21:00N 33°44' W 118°10'0 0.1
2019-Feb-18 20:30N 33°44' W 118°10'0 0.1
2019-Feb-18 20:00N 33°44' W 118°10'0 0.1
2019-Feb-18 19:30N 33°44' W 118°10'0 0.0
2019-Feb-18 19:00N 33°44' W 118°10'0 0.1
2019-Feb-18 18:30N 33°44' W 118°10'0 0.0
2019-Feb-18 18:00N 33°44' W 118°10'0 0.1
2019-Feb-18 17:30N 33°44' W 118°10'0 0.0
2019-Feb-18 17:00N 33°44' W 118°10'1 2.0
2019-Feb-18 16:30N 33°43' W 118°11'4 7.5
2019-Feb-18 16:00N 33°39' W 118°10'5 9.6
2019-Feb-18 15:30N 33°35' W 118°09'510.8
2019-Feb-18 15:00N 33°30' W 118°07'610.9
2019-Feb-18 14:28N 33°24' W 118°05'510.9
2019-Feb-18 14:00N 33°19' W 118°03'510.6
2019-Feb-18 13:30N 33°14' W 118°01'510.5
2019-Feb-18 13:00N 33°09' W 117°59'4 9.0
2019-Feb-18 12:30N 33°05' W 117°56'3 6.3
2019-Feb-18 12:00N 33°04' W 117°53'3 5.9
2019-Feb-18 11:30N 33°02' W 117°50'3 5.5
2019-Feb-18 11:01N 32°60' W 117°50'3 5.5
2019-Feb-18 10:30N 32°58' W 117°47'2 4.8
2019-Feb-18 10:00N 32°56' W 117°45'4 8.0
2019-Feb-18 09:30N 32°59' W 117°49'4 7.9
2019-Feb-18 09:00N 33°02' W 117°52'2 4.2
2019-Feb-18 08:31N 33°00' W 117°51'3 5.1
2019-Feb-18 08:00N 32°58' W 117°48'3 5.0
2019-Feb-18 07:30N 32°57' W 117°46'3 5.1
2019-Feb-18 07:00N 32°55' W 117°44'2 4.6
2019-Feb-18 06:31N 32°54' W 117°42'3 6.3
2019-Feb-18 06:01N 32°56' W 117°44'3161.0
2019-Feb-18 06:00N 32°54' W 117°42'714.4 300 / 291017.510.8 12.2 5.1
2019-Feb-18 05:30N 32°59' W 117°48'4 8.8
2019-Feb-18 05:00N 33°01' W 117°52'5 9.7
2019-Feb-18 04:30N 33°05' W 117°57'611.9
2019-Feb-18 04:00N 33°09' W 118°01'611.9
2019-Feb-18 03:31N 33°14' W 118°04'611.9
2019-Feb-18 03:00N 33°20' W 118°06'612.0
2019-Feb-18 02:31N 33°26' W 118°09'612.0
2019-Feb-18 02:00N 33°31' W 118°12'510.6
2019-Feb-18 01:30N 33°37' W 118°13'5 9.8
2019-Feb-18 01:00N 33°41' W 118°10'2 3.1
2019-Feb-18 00:23N 33°42' W 118°09'0 0.1
2019-Feb-17 23:56N 33°42' W 118°08'0 0.0
2019-Feb-17 23:26N 33°42' W 118°08'0 0.0
2019-Feb-17 22:59N 33°42' W 118°08'0 0.0
2019-Feb-17 22:29N 33°42' W 118°08'0 0.0
2019-Feb-17 21:59N 33°42' W 118°08'0 0.0
2019-Feb-17 21:29N 33°42' W 118°08'0 0.1
2019-Feb-17 20:53N 33°42' W 118°08'0 0.1
2019-Feb-17 20:29N 33°42' W 118°08'0 0.0
2019-Feb-17 19:59N 33°42' W 118°08'0 0.0
2019-Feb-17 19:26N 33°42' W 118°08'0 0.0
2019-Feb-17 18:53N 33°42' W 118°08'0 0.0
2019-Feb-17 18:29N 33°42' W 118°08'0 0.0
2019-Feb-17 17:59N 33°42' W 118°08'0 0.0
2019-Feb-17 17:20N 33°42' W 118°08'0 0.0
2019-Feb-17 16:50N 33°42' W 118°08'0 0.0
2019-Feb-17 15:56N 33°42' W 118°08'0 0.0
2019-Feb-17 15:29N 33°42' W 118°08'0 0.0
2019-Feb-17 14:53N 33°42' W 118°08'0 0.0
2019-Feb-17 14:29N 33°42' W 118°08'0 0.0
2019-Feb-17 13:56N 33°42' W 118°08'0 0.0
2019-Feb-17 13:26N 33°42' W 118°08'0 0.0
2019-Feb-17 12:56N 33°42' W 118°08'0 0.0
2019-Feb-17 12:26N 33°42' W 118°08'0 0.0
2019-Feb-17 11:59N 33°42' W 118°08'0 0.0
2019-Feb-17 11:29N 33°42' W 118°08'0 0.0
2019-Feb-17 10:59N 33°42' W 118°08'0 0.0
2019-Feb-17 10:20N 33°42' W 118°08'0 0.0
2019-Feb-17 09:56N 33°42' W 118°08'0 0.0
2019-Feb-17 09:23N 33°42' W 118°08'0 0.0
2019-Feb-17 08:53N 33°42' W 118°08'0 0.0
2019-Feb-17 08:23N 33°42' W 118°08'0 0.0
2019-Feb-17 07:56N 33°42' W 118°08'0 0.0
2019-Feb-17 07:29N 33°42' W 118°08'0 0.0
2019-Feb-17 06:59N 33°42' W 118°08'0 0.0
2019-Feb-17 06:26N 33°42' W 118°08'0 0.0
2019-Feb-17 05:59N 33°42' W 118°08'0 0.0
2019-Feb-17 05:26N 33°42' W 118°08'0 0.0
2019-Feb-17 04:53N 33°42' W 118°08'0 0.0
2019-Feb-17 04:29N 33°42' W 118°08'0 0.0
2019-Feb-17 03:56N 33°42' W 118°08'0 0.1
2019-Feb-17 03:26N 33°42' W 118°09'1 1.9
2019-Feb-17 03:00N 33°42' W 118°09'1 2.6
2019-Feb-17 02:30N 33°41' W 118°10'4 7.7
2019-Feb-17 02:00N 33°38' W 118°13'510.4
2019-Feb-17 01:30N 33°36' W 118°19'711.9
2019-Feb-17 00:56N 33°37' W 118°27'712.2
2019-Feb-17 00:20N 33°38' W 118°36'412.1
2019-Feb-16 23:59N 33°39' W 118°41'611.7
2019-Feb-16 23:31N 33°41' W 118°47'611.9
2019-Feb-16 23:00N 33°43' W 118°54'5 9.2
2019-Feb-16 22:31N 33°44' W 118°59'3 6.5
2019-Feb-16 22:00N 33°44' W 119°03'612.5
2019-Feb-16 21:30N 33°43' W 119°11'714.0
2019-Feb-16 21:01N 33°43' W 119°19'714.0
2019-Feb-16 20:30N 33°42' W 119°27'713.8
2019-Feb-16 20:00N 33°42' W 119°36'713.6
2019-Feb-16 19:31N 33°41' W 119°44'713.6
2019-Feb-16 19:01N 33°41' W 119°52'713.7
2019-Feb-16 18:31N 33°40' W 120°00'713.6
2019-Feb-16 18:00N 33°40' W 120°08'5279.4
2019-Feb-16 18:00N 33°36' W 120°06'1021.3 320 / 251024.310.8 11.9 5.7
2019-Feb-16 17:30N 33°42' W 120°16'713.6
2019-Feb-16 17:00N 33°45' W 120°23'713.3
2019-Feb-16 16:31N 33°47' W 120°31'612.9
2019-Feb-16 16:00N 33°49' W 120°38'613.0
2019-Feb-16 15:30N 33°52' W 120°45'713.3
2019-Feb-16 15:00N 33°54' W 120°53'613.1
2019-Feb-16 14:31N 33°56' W 121°00'713.5
2019-Feb-16 14:01N 33°59' W 121°08'713.3
2019-Feb-16 13:30N 34°01' W 121°15'713.4
2019-Feb-16 13:01N 34°03' W 121°23'713.3
2019-Feb-16 12:31N 34°06' W 121°31'612.9
2019-Feb-16 12:00N 34°12' W 121°33'3179.7
2019-Feb-16 12:00N 34°12' W 121°30'816.0 290 / 251023.2 12.2 6.3
2019-Feb-16 11:30N 34°18' W 121°36'813.3
2019-Feb-16 10:56N 34°25' W 121°39'513.0
2019-Feb-16 10:31N 34°31' W 121°41'713.0
2019-Feb-16 10:00N 34°37' W 121°43'913.3
2019-Feb-16 09:18N 34°46' W 121°47'4112.5
2019-Feb-16 06:00N 35°24' W 122°06'13812.4 320 / 181020.310.8 11.9 5.7
2019-Feb-15 18:55N 37°33' W 123°06'511.2
2019-Feb-15 18:30N 37°36' W 123°01'611.4
2019-Feb-15 18:01N 37°39' W 122°55'510.8
2019-Feb-15 17:31N 37°42' W 122°50'510.6
2019-Feb-15 17:01N 37°44' W 122°43'5 9.9
2019-Feb-15 16:30N 37°46' W 122°38'5 9.7
2019-Feb-15 16:00N 37°48' W 122°32'5 9.2
2019-Feb-15 15:30N 37°50' W 122°27'3 6.3
2019-Feb-15 15:00N 37°53' W 122°25'2 4.7
2019-Feb-15 14:30N 37°55' W 122°25'0 0.0
2019-Feb-14 18:22N 37°55' W 122°25'0 0.0
2019-Feb-14 15:52N 37°55' W 122°25'0 0.0
2019-Feb-14 15:28N 37°55' W 122°25'0 0.0
2019-Feb-14 14:10N 37°55' W 122°25'0 0.0
2019-Feb-14 13:10N 37°55' W 122°25'0 0.0
2019-Feb-14 09:34N 37°55' W 122°25'0 0.0
2019-Feb-14 05:46N 37°55' W 122°25'0 0.0
2019-Feb-14 02:10N 37°55' W 122°25'0 0.0
2019-Feb-14 01:22N 37°55' W 122°25'0 0.0
2019-Feb-14 00:40N 37°55' W 122°25'0 0.0
2019-Feb-14 00:28N 37°55' W 122°25'0 0.0
2019-Feb-13 21:46N 37°55' W 122°25'0 0.0
2019-Feb-13 20:28N 37°55' W 122°25'0 0.0
2019-Feb-13 19:58N 37°55' W 122°25'0 0.0
2019-Feb-13 19:22N 37°55' W 122°25'0 0.0
2019-Feb-13 18:46N 37°55' W 122°25'0 0.0
2019-Feb-13 18:16N 37°55' W 122°25'0 0.0
2019-Feb-13 17:58N 37°55' W 122°25'0 0.1
2019-Feb-13 17:30N 37°55' W 122°25'1 2.0
2019-Feb-13 17:00N 37°54' W 122°25'5 9.0
2019-Feb-13 16:30N 37°50' W 122°24'4 7.1
2019-Feb-13 16:00N 37°49' W 122°29'4 8.7
2019-Feb-13 15:30N 37°47' W 122°33'510.6
2019-Feb-13 15:00N 37°45' W 122°40'612.0
2019-Feb-13 14:30N 37°42' W 122°46'912.7
2019-Feb-13 13:48N 37°36' W 122°55'15 8.3
2019-Feb-13 12:00N 37°24' W 123°06'15 3.1 150 / 451003.1 13.311.2
2019-Feb-13 07:00N 37°30' W 123°24'14 2.0 160 / 481006.7 5.4 12.010.1
2019-Feb-13 00:00N 37°30' W 123°42'5 0.8 180 / 301013.3 5.4 9.0 6.9
2019-Feb-12 18:00N 37°30' W 123°48'5 0.8 180 / 251019.310.8 11.0 4.3
2019-Feb-12 12:00N 37°30' W 123°42'15 2.6 160 / 131020.1 10.5 1.1
2019-Feb-12 06:00N 37°24' W 124°00'42 8.2 210 / 111022.810.8 11.0 1.5
2019-Feb-12 00:53N 37°32' W 123°08'411.0
2019-Feb-12 00:30N 37°34' W 123°04'611.0
2019-Feb-12 00:00N 37°37' W 122°58'510.6
2019-Feb-11 23:30N 37°40' W 122°52'510.6
2019-Feb-11 23:00N 37°43' W 122°47'510.4
2019-Feb-11 22:30N 37°46' W 122°41'510.2
2019-Feb-11 22:00N 37°47' W 122°35'510.4
2019-Feb-11 21:30N 37°49' W 122°29'4 7.9
2019-Feb-11 21:00N 37°49' W 122°24'4 7.8
2019-Feb-11 20:30N 37°46' W 122°21'0 0.2
2019-Feb-11 20:00N 37°46' W 122°21'0 0.2
2019-Feb-11 19:30N 37°46' W 122°21'0 0.1
2019-Feb-11 19:00N 37°46' W 122°21'0 0.0
2019-Feb-11 18:30N 37°46' W 122°21'0 0.0
2019-Feb-11 18:00N 37°46' W 122°21'0 0.0
2019-Feb-11 17:30N 37°46' W 122°21'0 0.1
2019-Feb-11 17:00N 37°46' W 122°21'0 0.0
2019-Feb-11 16:30N 37°46' W 122°21'0 0.0
2019-Feb-11 16:00N 37°46' W 122°21'0 0.0
2019-Feb-11 15:30N 37°46' W 122°21'0 0.0
2019-Feb-11 15:00N 37°46' W 122°21'0 0.0
2019-Feb-11 14:30N 37°46' W 122°21'0 0.0
2019-Feb-11 13:57N 37°46' W 122°21'0 0.0
2019-Feb-11 13:30N 37°46' W 122°21'0 0.1
2019-Feb-11 13:00N 37°46' W 122°21'0 0.3
2019-Feb-11 12:30N 37°46' W 122°21'0 0.2
2019-Feb-11 12:00N 37°46' W 122°21'0 0.0
2019-Feb-11 11:30N 37°46' W 122°21'0 0.0
2019-Feb-11 11:00N 37°46' W 122°21'0 0.0
2019-Feb-11 10:30N 37°46' W 122°21'0 0.0
2019-Feb-11 10:00N 37°46' W 122°21'0 0.0
2019-Feb-11 09:30N 37°46' W 122°21'0 0.0
2019-Feb-11 08:57N 37°46' W 122°21'0 0.1
2019-Feb-11 08:30N 37°46' W 122°21'0 0.2
2019-Feb-11 08:00N 37°46' W 122°21'0 0.1
2019-Feb-11 07:30N 37°46' W 122°21'0 0.0
2019-Feb-11 07:00N 37°46' W 122°21'0 0.0
2019-Feb-11 06:30N 37°46' W 122°21'0 0.1
2019-Feb-11 06:00N 37°46' W 122°21'0 0.2
2019-Feb-11 05:30N 37°46' W 122°21'0 0.1
2019-Feb-11 05:00N 37°46' W 122°21'0 0.1
2019-Feb-11 04:30N 37°46' W 122°21'0 0.0
2019-Feb-11 04:00N 37°46' W 122°21'0 0.0
2019-Feb-11 03:30N 37°46' W 122°21'0 0.0
2019-Feb-11 03:00N 37°46' W 122°21'0 0.0
2019-Feb-11 02:30N 37°46' W 122°21'0 0.0
2019-Feb-11 02:00N 37°46' W 122°21'0 0.0
2019-Feb-11 01:30N 37°46' W 122°21'0 0.1
2019-Feb-11 01:00N 37°46' W 122°21'0 0.2
2019-Feb-11 00:30N 37°46' W 122°21'0 0.3
2019-Feb-11 00:00N 37°46' W 122°21'0 0.0
2019-Feb-10 23:30N 37°46' W 122°21'0 0.0
2019-Feb-10 23:00N 37°46' W 122°21'0 0.0
2019-Feb-10 22:30N 37°46' W 122°21'0 0.0
2019-Feb-10 22:00N 37°46' W 122°21'0 0.0
2019-Feb-10 21:30N 37°46' W 122°21'0 0.0
2019-Feb-10 21:00N 37°46' W 122°21'0 0.0
2019-Feb-10 20:30N 37°46' W 122°21'0 0.1
2019-Feb-10 20:00N 37°46' W 122°21'0 0.1
2019-Feb-10 19:30N 37°46' W 122°21'0 0.0
2019-Feb-10 19:00N 37°46' W 122°21'0 0.0
2019-Feb-10 18:30N 37°46' W 122°21'0 0.3
2019-Feb-10 17:57N 37°46' W 122°21'0 0.2
2019-Feb-10 17:27N 37°46' W 122°21'0 0.1
2019-Feb-10 17:00N 37°46' W 122°21'0 0.0
2019-Feb-10 16:30N 37°46' W 122°21'0 0.0
2019-Feb-10 16:00N 37°46' W 122°21'0 0.0
2019-Feb-10 15:27N 37°46' W 122°21'0 0.3
2019-Feb-10 15:01N 37°46' W 122°21'4 7.5
2019-Feb-10 14:31N 37°49' W 122°24'510.3
2019-Feb-10 14:01N 37°54' W 122°26'510.1
2019-Feb-10 13:28N 37°59' W 122°25'5 9.5
2019-Feb-10 12:59N 38°02' W 122°21'4 7.7
2019-Feb-10 12:30N 38°03' W 122°16'  
Track history (hours):
 
Tides and Currents Weather Stations Pressure Air Temp Water Temp Dewpoint Dewpoint Depression Visibility Wind Speed Wind Dir Waves Ship Positions

Florida Voyager

Owner: Chevron USA Inc., Washington, DC. More information available from US FCC via Universal Licensing System and Coast Guard Vessel Documentation Center.

Last reported at 2019-Feb-20 06:58 UTC. Time now 2019-Feb-20 07:21 UTC.
Position N 33°55' W 118°27'.

Length 183 m; draft 11.4 m.

Type: Tanker. MMSI: 367455580.

Date/timePositionNaut miles runAvg speedWind from/ knotsBaromVisibWave heightAir tempDewpointWater temp
2019-Feb-20 06:58N 33°55' W 118°27'0 0.0
2019-Feb-20 06:28N 33°55' W 118°27'0 0.0
2019-Feb-20 05:58N 33°55' W 118°27'0 0.0
2019-Feb-20 05:28N 33°55' W 118°27'0 0.0
2019-Feb-20 04:55N 33°55' W 118°27'0 0.0
2019-Feb-20 04:28N 33°55' W 118°27'0 0.0
2019-Feb-20 03:58N 33°55' W 118°27'0 0.0
2019-Feb-20 02:58N 33°55' W 118°27'0 0.0
2019-Feb-20 02:28N 33°55' W 118°27'0 0.0
2019-Feb-20 01:58N 33°55' W 118°27'0 0.0
2019-Feb-20 01:28N 33°55' W 118°27'0 0.0
2019-Feb-20 00:58N 33°55' W 118°27'0 0.0
2019-Feb-20 00:28N 33°55' W 118°27'0 0.0
2019-Feb-19 23:58N 33°55' W 118°27'0 0.0
2019-Feb-19 23:28N 33°55' W 118°27'0 0.0
2019-Feb-19 22:58N 33°55' W 118°27'0 0.0
2019-Feb-19 22:28N 33°55' W 118°27'0 0.0
2019-Feb-19 21:58N 33°55' W 118°27'0 0.0
2019-Feb-19 21:28N 33°55' W 118°27'0 0.0
2019-Feb-19 20:58N 33°55' W 118°27'0 0.0
2019-Feb-19 20:28N 33°55' W 118°27'0 0.0
2019-Feb-19 19:58N 33°55' W 118°27'0 0.0
2019-Feb-19 19:28N 33°55' W 118°27'0 0.1
2019-Feb-19 18:58N 33°55' W 118°27'1 1.1
2019-Feb-19 18:30N 33°54' W 118°27'2 3.1
2019-Feb-19 18:00N 33°53' W 118°28'1 2.5
2019-Feb-19 17:31N 33°52' W 118°30'0 1.0
2019-Feb-19 17:00N 33°52' W 118°30'4 8.4
2019-Feb-19 16:30N 33°48' W 118°31'510.9
2019-Feb-19 16:00N 33°42' W 118°30'611.9
2019-Feb-19 15:30N 33°39' W 118°23'611.4
2019-Feb-19 15:00N 33°38' W 118°16'510.1
2019-Feb-19 14:30N 33°41' W 118°12'3 5.8
2019-Feb-19 14:00N 33°44' W 118°10'0 0.0
2019-Feb-19 13:24N 33°44' W 118°10'0 0.0
2019-Feb-19 13:00N 33°44' W 118°10'0 0.0
2019-Feb-19 12:30N 33°44' W 118°10'0 0.1
2019-Feb-19 12:00N 33°44' W 118°10'0 0.0
2019-Feb-19 11:30N 33°44' W 118°10'0 0.0
2019-Feb-19 11:00N 33°44' W 118°10'0 0.0
2019-Feb-19 10:30N 33°44' W 118°10'0 0.0
2019-Feb-19 10:00N 33°44' W 118°10'0 0.0
2019-Feb-19 09:30N 33°44' W 118°10'0 0.1
2019-Feb-19 09:00N 33°44' W 118°10'0 0.0
2019-Feb-19 08:27N 33°44' W 118°10'0 0.1
2019-Feb-19 07:45N 33°44' W 118°10'0 0.0
2019-Feb-19 07:30N 33°44' W 118°10'0 0.0
2019-Feb-19 06:57N 33°44' W 118°10'0 0.1
2019-Feb-19 06:15N 33°44' W 118°10'0 0.0
2019-Feb-19 05:51N 33°44' W 118°10'0 0.1
2019-Feb-19 05:30N 33°44' W 118°10'0 0.1
2019-Feb-19 04:57N 33°44' W 118°10'0 0.1
2019-Feb-19 04:30N 33°44' W 118°10'0 0.0
2019-Feb-19 03:48N 33°44' W 118°10'0 0.0
2019-Feb-19 03:30N 33°44' W 118°10'0 0.0
2019-Feb-19 03:00N 33°44' W 118°10'0 0.1
2019-Feb-19 02:27N 33°44' W 118°10'0 0.1
2019-Feb-19 01:54N 33°44' W 118°10'0 0.1
2019-Feb-19 01:09N 33°44' W 118°10'0 0.5
2019-Feb-19 00:57N 33°44' W 118°10'0 0.3
2019-Feb-19 00:30N 33°44' W 118°10'0 0.0
2019-Feb-19 00:00N 33°44' W 118°10'0 0.0
2019-Feb-18 23:30N 33°44' W 118°10'0 0.0
2019-Feb-18 22:57N 33°44' W 118°10'0 0.0
2019-Feb-18 22:30N 33°44' W 118°10'0 0.1
2019-Feb-18 22:00N 33°44' W 118°10'0 0.0
2019-Feb-18 21:30N 33°44' W 118°10'0 0.0
2019-Feb-18 21:00N 33°44' W 118°10'0 0.1
2019-Feb-18 20:30N 33°44' W 118°10'0 0.1
2019-Feb-18 20:00N 33°44' W 118°10'0 0.1
2019-Feb-18 19:30N 33°44' W 118°10'0 0.0
2019-Feb-18 19:00N 33°44' W 118°10'0 0.1
2019-Feb-18 18:30N 33°44' W 118°10'0 0.0
2019-Feb-18 18:00N 33°44' W 118°10'0 0.1
2019-Feb-18 17:30N 33°44' W 118°10'0 0.0
2019-Feb-18 17:00N 33°44' W 118°10'1 2.0
2019-Feb-18 16:30N 33°43' W 118°11'4 7.5
2019-Feb-18 16:00N 33°39' W 118°10'5 9.6
2019-Feb-18 15:30N 33°35' W 118°09'510.8
2019-Feb-18 15:00N 33°30' W 118°07'610.9
2019-Feb-18 14:28N 33°24' W 118°05'510.9
2019-Feb-18 14:00N 33°19' W 118°03'510.6
2019-Feb-18 13:30N 33°14' W 118°01'510.5
2019-Feb-18 13:00N 33°09' W 117°59'4 9.0
2019-Feb-18 12:30N 33°05' W 117°56'3 6.3
2019-Feb-18 12:00N 33°04' W 117°53'3 5.9
2019-Feb-18 11:30N 33°02' W 117°50'3 5.5
2019-Feb-18 11:01N 32°60' W 117°50'3 5.5
2019-Feb-18 10:30N 32°58' W 117°47'2 4.8
2019-Feb-18 10:00N 32°56' W 117°45'4 8.0
2019-Feb-18 09:30N 32°59' W 117°49'4 7.9
2019-Feb-18 09:00N 33°02' W 117°52'2 4.2
2019-Feb-18 08:31N 33°00' W 117°51'3 5.1
2019-Feb-18 08:00N 32°58' W 117°48'3 5.0
2019-Feb-18 07:30N 32°57' W 117°46'3 5.1
2019-Feb-18 07:00N 32°55' W 117°44'2 4.6
2019-Feb-18 06:31N 32°54' W 117°42'3 6.3
2019-Feb-18 06:01N 32°56' W 117°44'3161.0
2019-Feb-18 06:00N 32°54' W 117°42'714.4 300 / 291017.510.8 12.2 5.1
2019-Feb-18 05:30N 32°59' W 117°48'4 8.8
2019-Feb-18 05:00N 33°01' W 117°52'5 9.7
2019-Feb-18 04:30N 33°05' W 117°57'611.9
2019-Feb-18 04:00N 33°09' W 118°01'611.9
2019-Feb-18 03:31N 33°14' W 118°04'611.9
2019-Feb-18 03:00N 33°20' W 118°06'612.0
2019-Feb-18 02:31N 33°26' W 118°09'612.0
2019-Feb-18 02:00N 33°31' W 118°12'510.6
2019-Feb-18 01:30N 33°37' W 118°13'5 9.8
2019-Feb-18 01:00N 33°41' W 118°10'2 3.1
2019-Feb-18 00:23N 33°42' W 118°09'0 0.1
2019-Feb-17 23:56N 33°42' W 118°08'0 0.0
2019-Feb-17 23:26N 33°42' W 118°08'0 0.0
2019-Feb-17 22:59N 33°42' W 118°08'0 0.0
2019-Feb-17 22:29N 33°42' W 118°08'0 0.0
2019-Feb-17 21:59N 33°42' W 118°08'0 0.0
2019-Feb-17 21:29N 33°42' W 118°08'0 0.1
2019-Feb-17 20:53N 33°42' W 118°08'0 0.1
2019-Feb-17 20:29N 33°42' W 118°08'0 0.0
2019-Feb-17 19:59N 33°42' W 118°08'0 0.0
2019-Feb-17 19:26N 33°42' W 118°08'0 0.0
2019-Feb-17 18:53N 33°42' W 118°08'0 0.0
2019-Feb-17 18:29N 33°42' W 118°08'0 0.0
2019-Feb-17 17:59N 33°42' W 118°08'0 0.0
2019-Feb-17 17:20N 33°42' W 118°08'0 0.0
2019-Feb-17 16:50N 33°42' W 118°08'0 0.0
2019-Feb-17 15:56N 33°42' W 118°08'0 0.0
2019-Feb-17 15:29N 33°42' W 118°08'0 0.0
2019-Feb-17 14:53N 33°42' W 118°08'0 0.0
2019-Feb-17 14:29N 33°42' W 118°08'0 0.0
2019-Feb-17 13:56N 33°42' W 118°08'0 0.0
2019-Feb-17 13:26N 33°42' W 118°08'0 0.0
2019-Feb-17 12:56N 33°42' W 118°08'0 0.0
2019-Feb-17 12:26N 33°42' W 118°08'0 0.0
2019-Feb-17 11:59N 33°42' W 118°08'0 0.0
2019-Feb-17 11:29N 33°42' W 118°08'0 0.0
2019-Feb-17 10:59N 33°42' W 118°08'0 0.0
2019-Feb-17 10:20N 33°42' W 118°08'0 0.0
2019-Feb-17 09:56N 33°42' W 118°08'0 0.0
2019-Feb-17 09:23N 33°42' W 118°08'0 0.0
2019-Feb-17 08:53N 33°42' W 118°08'0 0.0
2019-Feb-17 08:23N 33°42' W 118°08'0 0.0
2019-Feb-17 07:56N 33°42' W 118°08'0 0.0
2019-Feb-17 07:29N 33°42' W 118°08'0 0.0
2019-Feb-17 06:59N 33°42' W 118°08'0 0.0
2019-Feb-17 06:26N 33°42' W 118°08'0 0.0
2019-Feb-17 05:59N 33°42' W 118°08'0 0.0
2019-Feb-17 05:26N 33°42' W 118°08'0 0.0
2019-Feb-17 04:53N 33°42' W 118°08'0 0.0
2019-Feb-17 04:29N 33°42' W 118°08'0 0.0
2019-Feb-17 03:56N 33°42' W 118°08'0 0.1
2019-Feb-17 03:26N 33°42' W 118°09'1 1.9
2019-Feb-17 03:00N 33°42' W 118°09'1 2.6
2019-Feb-17 02:30N 33°41' W 118°10'4 7.7
2019-Feb-17 02:00N 33°38' W 118°13'510.4
2019-Feb-17 01:30N 33°36' W 118°19'711.9
2019-Feb-17 00:56N 33°37' W 118°27'712.2
2019-Feb-17 00:20N 33°38' W 118°36'412.1
2019-Feb-16 23:59N 33°39' W 118°41'611.7
2019-Feb-16 23:31N 33°41' W 118°47'611.9
2019-Feb-16 23:00N 33°43' W 118°54'5 9.2
2019-Feb-16 22:31N 33°44' W 118°59'3 6.5
2019-Feb-16 22:00N 33°44' W 119°03'612.5
2019-Feb-16 21:30N 33°43' W 119°11'714.0
2019-Feb-16 21:01N 33°43' W 119°19'714.0
2019-Feb-16 20:30N 33°42' W 119°27'713.8
2019-Feb-16 20:00N 33°42' W 119°36'713.6
2019-Feb-16 19:31N 33°41' W 119°44'713.6
2019-Feb-16 19:01N 33°41' W 119°52'713.7
2019-Feb-16 18:31N 33°40' W 120°00'713.6
2019-Feb-16 18:00N 33°40' W 120°08'5279.4
2019-Feb-16 18:00N 33°36' W 120°06'1021.3 320 / 251024.310.8 11.9 5.7
2019-Feb-16 17:30N 33°42' W 120°16'713.6
2019-Feb-16 17:00N 33°45' W 120°23'713.3
2019-Feb-16 16:31N 33°47' W 120°31'612.9
2019-Feb-16 16:00N 33°49' W 120°38'613.0
2019-Feb-16 15:30N 33°52' W 120°45'713.3
2019-Feb-16 15:00N 33°54' W 120°53'613.1
2019-Feb-16 14:31N 33°56' W 121°00'713.5
2019-Feb-16 14:01N 33°59' W 121°08'713.3
2019-Feb-16 13:30N 34°01' W 121°15'713.4
2019-Feb-16 13:01N 34°03' W 121°23'713.3
2019-Feb-16 12:31N 34°06' W 121°31'612.9
2019-Feb-16 12:00N 34°12' W 121°33'3179.7
2019-Feb-16 12:00N 34°12' W 121°30'816.0 290 / 251023.2 12.2 6.3
2019-Feb-16 11:30N 34°18' W 121°36'813.3
2019-Feb-16 10:56N 34°25' W 121°39'513.0
2019-Feb-16 10:31N 34°31' W 121°41'713.0
2019-Feb-16 10:00N 34°37' W 121°43'913.3
2019-Feb-16 09:18N 34°46' W 121°47'4112.5
2019-Feb-16 06:00N 35°24' W 122°06'13812.4 320 / 181020.310.8 11.9 5.7
2019-Feb-15 18:55N 37°33' W 123°06'511.2
2019-Feb-15 18:30N 37°36' W 123°01'611.4
2019-Feb-15 18:01N 37°39' W 122°55'510.8
2019-Feb-15 17:31N 37°42' W 122°50'510.6
2019-Feb-15 17:01N 37°44' W 122°43'5 9.9
2019-Feb-15 16:30N 37°46' W 122°38'5 9.7
2019-Feb-15 16:00N 37°48' W 122°32'5 9.2
2019-Feb-15 15:30N 37°50' W 122°27'3 6.3
2019-Feb-15 15:00N 37°53' W 122°25'2 4.7
2019-Feb-15 14:30N 37°55' W 122°25'0 0.0
2019-Feb-14 18:22N 37°55' W 122°25'0 0.0
2019-Feb-14 15:52N 37°55' W 122°25'0 0.0
2019-Feb-14 15:28N 37°55' W 122°25'0 0.0
2019-Feb-14 14:10N 37°55' W 122°25'0 0.0
2019-Feb-14 13:10N 37°55' W 122°25'0 0.0
2019-Feb-14 09:34N 37°55' W 122°25'0 0.0
2019-Feb-14 05:46N 37°55' W 122°25'0 0.0
2019-Feb-14 02:10N 37°55' W 122°25'0 0.0
2019-Feb-14 01:22N 37°55' W 122°25'0 0.0
2019-Feb-14 00:40N 37°55' W 122°25'0 0.0
2019-Feb-14 00:28N 37°55' W 122°25'0 0.0
2019-Feb-13 21:46N 37°55' W 122°25'0 0.0
2019-Feb-13 20:28N 37°55' W 122°25'0 0.0
2019-Feb-13 19:58N 37°55' W 122°25'0 0.0
2019-Feb-13 19:22N 37°55' W 122°25'0 0.0
2019-Feb-13 18:46N 37°55' W 122°25'0 0.0
2019-Feb-13 18:16N 37°55' W 122°25'0 0.0
2019-Feb-13 17:58N 37°55' W 122°25'0 0.1
2019-Feb-13 17:30N 37°55' W 122°25'1 2.0
2019-Feb-13 17:00N 37°54' W 122°25'5 9.0
2019-Feb-13 16:30N 37°50' W 122°24'4 7.1
2019-Feb-13 16:00N 37°49' W 122°29'4 8.7
2019-Feb-13 15:30N 37°47' W 122°33'510.6
2019-Feb-13 15:00N 37°45' W 122°40'612.0
2019-Feb-13 14:30N 37°42' W 122°46'912.7
2019-Feb-13 13:48N 37°36' W 122°55'15 8.3
2019-Feb-13 12:00N 37°24' W 123°06'15 3.1 150 / 451003.1 13.311.2
2019-Feb-13 07:00N 37°30' W 123°24'14 2.0 160 / 481006.7 5.4 12.010.1
2019-Feb-13 00:00N 37°30' W 123°42'5 0.8 180 / 301013.3 5.4 9.0 6.9
2019-Feb-12 18:00N 37°30' W 123°48'5 0.8 180 / 251019.310.8 11.0 4.3
2019-Feb-12 12:00N 37°30' W 123°42'15 2.6 160 / 131020.1 10.5 1.1
2019-Feb-12 06:00N 37°24' W 124°00'42 8.2 210 / 111022.810.8 11.0 1.5
2019-Feb-12 00:53N 37°32' W 123°08'411.0
2019-Feb-12 00:30N 37°34' W 123°04'611.0
2019-Feb-12 00:00N 37°37' W 122°58'510.6
2019-Feb-11 23:30N 37°40' W 122°52'510.6
2019-Feb-11 23:00N 37°43' W 122°47'510.4
2019-Feb-11 22:30N 37°46' W 122°41'510.2
2019-Feb-11 22:00N 37°47' W 122°35'510.4
2019-Feb-11 21:30N 37°49' W 122°29'4 7.9
2019-Feb-11 21:00N 37°49' W 122°24'4 7.8
2019-Feb-11 20:30N 37°46' W 122°21'0 0.2
2019-Feb-11 20:00N 37°46' W 122°21'0 0.2
2019-Feb-11 19:30N 37°46' W 122°21'0 0.1
2019-Feb-11 19:00N 37°46' W 122°21'0 0.0
2019-Feb-11 18:30N 37°46' W 122°21'0 0.0
2019-Feb-11 18:00N 37°46' W 122°21'0 0.0
2019-Feb-11 17:30N 37°46' W 122°21'0 0.1
2019-Feb-11 17:00N 37°46' W 122°21'0 0.0
2019-Feb-11 16:30N 37°46' W 122°21'0 0.0
2019-Feb-11 16:00N 37°46' W 122°21'0 0.0
2019-Feb-11 15:30N 37°46' W 122°21'0 0.0
2019-Feb-11 15:00N 37°46' W 122°21'0 0.0
2019-Feb-11 14:30N 37°46' W 122°21'0 0.0
2019-Feb-11 13:57N 37°46' W 122°21'0 0.0
2019-Feb-11 13:30N 37°46' W 122°21'0 0.1
2019-Feb-11 13:00N 37°46' W 122°21'0 0.3
2019-Feb-11 12:30N 37°46' W 122°21'0 0.2
2019-Feb-11 12:00N 37°46' W 122°21'0 0.0
2019-Feb-11 11:30N 37°46' W 122°21'0 0.0
2019-Feb-11 11:00N 37°46' W 122°21'0 0.0
2019-Feb-11 10:30N 37°46' W 122°21'0 0.0
2019-Feb-11 10:00N 37°46' W 122°21'0 0.0
2019-Feb-11 09:30N 37°46' W 122°21'0 0.0
2019-Feb-11 08:57N 37°46' W 122°21'0 0.1
2019-Feb-11 08:30N 37°46' W 122°21'0 0.2
2019-Feb-11 08:00N 37°46' W 122°21'0 0.1
2019-Feb-11 07:30N 37°46' W 122°21'0 0.0
2019-Feb-11 07:00N 37°46' W 122°21'0 0.0
2019-Feb-11 06:30N 37°46' W 122°21'0 0.1
2019-Feb-11 06:00N 37°46' W 122°21'0 0.2
2019-Feb-11 05:30N 37°46' W 122°21'0 0.1
2019-Feb-11 05:00N 37°46' W 122°21'0 0.1
2019-Feb-11 04:30N 37°46' W 122°21'0 0.0
2019-Feb-11 04:00N 37°46' W 122°21'0 0.0
2019-Feb-11 03:30N 37°46' W 122°21'0 0.0
2019-Feb-11 03:00N 37°46' W 122°21'0 0.0
2019-Feb-11 02:30N 37°46' W 122°21'0 0.0
2019-Feb-11 02:00N 37°46' W 122°21'0 0.0
2019-Feb-11 01:30N 37°46' W 122°21'0 0.1
2019-Feb-11 01:00N 37°46' W 122°21'0 0.2
2019-Feb-11 00:30N 37°46' W 122°21'0 0.3
2019-Feb-11 00:00N 37°46' W 122°21'0 0.0
2019-Feb-10 23:30N 37°46' W 122°21'0 0.0
2019-Feb-10 23:00N 37°46' W 122°21'0 0.0
2019-Feb-10 22:30N 37°46' W 122°21'0 0.0
2019-Feb-10 22:00N 37°46' W 122°21'0 0.0
2019-Feb-10 21:30N 37°46' W 122°21'0 0.0
2019-Feb-10 21:00N 37°46' W 122°21'0 0.0
2019-Feb-10 20:30N 37°46' W 122°21'0 0.1
2019-Feb-10 20:00N 37°46' W 122°21'0 0.1
2019-Feb-10 19:30N 37°46' W 122°21'0 0.0
2019-Feb-10 19:00N 37°46' W 122°21'0 0.0
2019-Feb-10 18:30N 37°46' W 122°21'0 0.3
2019-Feb-10 17:57N 37°46' W 122°21'0 0.2
2019-Feb-10 17:27N 37°46' W 122°21'0 0.1
2019-Feb-10 17:00N 37°46' W 122°21'0 0.0
2019-Feb-10 16:30N 37°46' W 122°21'0 0.0
2019-Feb-10 16:00N 37°46' W 122°21'0 0.0
2019-Feb-10 15:27N 37°46' W 122°21'0 0.3
2019-Feb-10 15:01N 37°46' W 122°21'4 7.5
2019-Feb-10 14:31N 37°49' W 122°24'510.3
2019-Feb-10 14:01N 37°54' W 122°26'510.1
2019-Feb-10 13:28N 37°59' W 122°25'5 9.5
2019-Feb-10 12:59N 38°02' W 122°21'4 7.7
2019-Feb-10 12:30N 38°03' W 122°16'  

Dump ship's entire track history